sensor_id;sensor_type;location;lat;lon;timestamp;temperature;humidity
41310;DHT22;27057;51.438;-0.010;2022-11-15T00:01:37;11.00;99.90
41310;DHT22;27057;51.438;-0.010;2022-11-15T00:04:24;11.00;99.90
41310;DHT22;27057;51.438;-0.010;2022-11-15T00:07:10;11.00;99.90
41310;DHT22;27057;51.438;-0.010;2022-11-15T00:10:11;11.00;99.90
41310;DHT22;27057;51.438;-0.010;2022-11-15T00:12:57;11.10;99.90
41310;DHT22;27057;51.438;-0.010;2022-11-15T00:15:43;10.90;99.90
41310;DHT22;27057;51.438;-0.010;2022-11-15T00:18:30;10.90;99.90
41310;DHT22;27057;51.438;-0.010;2022-11-15T00:21:16;10.80;99.90
41310;DHT22;27057;51.438;-0.010;2022-11-15T00:24:03;10.80;99.90
41310;DHT22;27057;51.438;-0.010;2022-11-15T00:26:48;10.80;99.90
41310;DHT22;27057;51.438;-0.010;2022-11-15T00:29:34;10.90;99.90
41310;DHT22;27057;51.438;-0.010;2022-11-15T00:32:20;10.80;99.90
41310;DHT22;27057;51.438;-0.010;2022-11-15T00:35:06;10.80;99.90
41310;DHT22;27057;51.438;-0.010;2022-11-15T00:37:52;10.80;99.90
41310;DHT22;27057;51.438;-0.010;2022-11-15T00:40:38;10.70;99.90
41310;DHT22;27057;51.438;-0.010;2022-11-15T00:43:24;10.70;99.90
41310;DHT22;27057;51.438;-0.010;2022-11-15T00:46:10;10.90;99.90
41310;DHT22;27057;51.438;-0.010;2022-11-15T00:48:56;10.70;99.90
41310;DHT22;27057;51.438;-0.010;2022-11-15T00:51:42;10.70;99.90
41310;DHT22;27057;51.438;-0.010;2022-11-15T00:54:28;10.70;99.90
41310;DHT22;27057;51.438;-0.010;2022-11-15T00:57:14;10.60;99.90
41310;DHT22;27057;51.438;-0.010;2022-11-15T01:00:00;10.70;99.90
41310;DHT22;27057;51.438;-0.010;2022-11-15T01:02:46;10.50;99.90
41310;DHT22;27057;51.438;-0.010;2022-11-15T01:05:32;10.60;99.90
41310;DHT22;27057;51.438;-0.010;2022-11-15T01:08:18;10.70;99.90
41310;DHT22;27057;51.438;-0.010;2022-11-15T01:11:10;10.80;99.90
41310;DHT22;27057;51.438;-0.010;2022-11-15T01:13:56;10.60;99.90
41310;DHT22;27057;51.438;-0.010;2022-11-15T01:16:42;10.40;99.90
41310;DHT22;27057;51.438;-0.010;2022-11-15T01:19:28;10.50;99.90
41310;DHT22;27057;51.438;-0.010;2022-11-15T01:22:14;10.50;99.90
41310;DHT22;27057;51.438;-0.010;2022-11-15T01:25:00;10.80;99.90
41310;DHT22;27057;51.438;-0.010;2022-11-15T01:27:46;10.60;99.90
41310;DHT22;27057;51.438;-0.010;2022-11-15T01:30:32;10.60;99.90
41310;DHT22;27057;51.438;-0.010;2022-11-15T01:33:18;10.40;99.90
41310;DHT22;27057;51.438;-0.010;2022-11-15T01:36:10;10.30;99.90
41310;DHT22;27057;51.438;-0.010;2022-11-15T01:38:58;10.60;99.90
41310;DHT22;27057;51.438;-0.010;2022-11-15T01:41:44;10.60;99.90
41310;DHT22;27057;51.438;-0.010;2022-11-15T01:44:38;10.60;99.90
41310;DHT22;27057;51.438;-0.010;2022-11-15T01:47:31;10.60;99.90
41310;DHT22;27057;51.438;-0.010;2022-11-15T01:50:22;10.60;99.90
41310;DHT22;27057;51.438;-0.010;2022-11-15T01:53:10;10.60;99.90
41310;DHT22;27057;51.438;-0.010;2022-11-15T01:55:56;11.20;99.90
41310;DHT22;27057;51.438;-0.010;2022-11-15T01:58:43;10.70;99.90
41310;DHT22;27057;51.438;-0.010;2022-11-15T02:01:30;10.70;99.90
41310;DHT22;27057;51.438;-0.010;2022-11-15T02:04:26;10.70;99.90
41310;DHT22;27057;51.438;-0.010;2022-11-15T02:07:16;10.70;99.90
41310;DHT22;27057;51.438;-0.010;2022-11-15T02:10:16;10.70;99.90
41310;DHT22;27057;51.438;-0.010;2022-11-15T02:13:03;10.70;99.90
41310;DHT22;27057;51.438;-0.010;2022-11-15T02:16:25;10.60;99.90
41310;DHT22;27057;51.438;-0.010;2022-11-15T02:25:41;10.60;99.90
41310;DHT22;27057;51.438;-0.010;2022-11-15T02:31:53;10.60;99.90
41310;DHT22;27057;51.438;-0.010;2022-11-15T02:37:57;10.60;99.90
41310;DHT22;27057;51.438;-0.010;2022-11-15T02:44:03;10.70;99.90
41310;DHT22;27057;51.438;-0.010;2022-11-15T02:46:55;10.70;99.90
41310;DHT22;27057;51.438;-0.010;2022-11-15T02:50:08;10.80;99.90
41310;DHT22;27057;51.438;-0.010;2022-11-15T02:52:56;10.80;99.90
41310;DHT22;27057;51.438;-0.010;2022-11-15T02:55:45;10.80;99.90
41310;DHT22;27057;51.438;-0.010;2022-11-15T02:58:58;11.00;99.90
41310;DHT22;27057;51.438;-0.010;2022-11-15T03:17:16;10.90;99.90
41310;DHT22;27057;51.438;-0.010;2022-11-15T03:20:06;10.90;99.90
41310;DHT22;27057;51.438;-0.010;2022-11-15T03:22:55;10.90;99.90
41310;DHT22;27057;51.438;-0.010;2022-11-15T03:25:46;10.90;99.90
41310;DHT22;27057;51.438;-0.010;2022-11-15T03:28:39;10.60;99.90
41310;DHT22;27057;51.438;-0.010;2022-11-15T03:31:30;10.80;99.90
41310;DHT22;27057;51.438;-0.010;2022-11-15T03:34:45;10.90;99.90
41310;DHT22;27057;51.438;-0.010;2022-11-15T03:37:58;11.00;99.90
41310;DHT22;27057;51.438;-0.010;2022-11-15T03:40:45;10.90;99.90
41310;DHT22;27057;51.438;-0.010;2022-11-15T03:43:55;11.00;99.90
41310;DHT22;27057;51.438;-0.010;2022-11-15T03:47:10;10.90;99.90
41310;DHT22;27057;51.438;-0.010;2022-11-15T03:50:02;10.90;99.90
41310;DHT22;27057;51.438;-0.010;2022-11-15T03:52:50;10.90;99.90
41310;DHT22;27057;51.438;-0.010;2022-11-15T03:55:36;10.90;99.90
41310;DHT22;27057;51.438;-0.010;2022-11-15T03:58:22;10.90;99.90
41310;DHT22;27057;51.438;-0.010;2022-11-15T04:01:07;10.90;99.90
41310;DHT22;27057;51.438;-0.010;2022-11-15T04:03:53;10.90;99.90
41310;DHT22;27057;51.438;-0.010;2022-11-15T04:06:40;10.90;99.90
41310;DHT22;27057;51.438;-0.010;2022-11-15T04:09:25;10.90;99.90
41310;DHT22;27057;51.438;-0.010;2022-11-15T04:12:11;11.50;99.90
41310;DHT22;27057;51.438;-0.010;2022-11-15T04:15:04;11.50;99.90
41310;DHT22;27057;51.438;-0.010;2022-11-15T04:17:55;10.90;99.90
41310;DHT22;27057;51.438;-0.010;2022-11-15T04:20:41;11.30;99.90
41310;DHT22;27057;51.438;-0.010;2022-11-15T04:23:46;11.50;99.90
41310;DHT22;27057;51.438;-0.010;2022-11-15T04:26:50;10.80;99.90
41310;DHT22;27057;51.438;-0.010;2022-11-15T04:29:36;11.00;99.90
41310;DHT22;27057;51.438;-0.010;2022-11-15T04:32:22;11.00;99.90
41310;DHT22;27057;51.438;-0.010;2022-11-15T04:35:08;11.20;99.90
41310;DHT22;27057;51.438;-0.010;2022-11-15T04:37:55;11.30;99.90
41310;DHT22;27057;51.438;-0.010;2022-11-15T04:40:41;11.40;99.90
41310;DHT22;27057;51.438;-0.010;2022-11-15T04:43:28;10.90;99.90
41310;DHT22;27057;51.438;-0.010;2022-11-15T04:46:14;11.10;99.90
41310;DHT22;27057;51.438;-0.010;2022-11-15T04:49:00;11.20;99.90
41310;DHT22;27057;51.438;-0.010;2022-11-15T04:51:46;11.20;99.90
41310;DHT22;27057;51.438;-0.010;2022-11-15T04:54:32;11.30;99.90
41310;DHT22;27057;51.438;-0.010;2022-11-15T04:57:18;11.40;99.90
41310;DHT22;27057;51.438;-0.010;2022-11-15T05:00:06;11.50;99.90
41310;DHT22;27057;51.438;-0.010;2022-11-15T05:02:53;11.50;99.90
41310;DHT22;27057;51.438;-0.010;2022-11-15T05:05:58;11.60;99.90
41310;DHT22;27057;51.438;-0.010;2022-11-15T05:08:44;11.80;99.90
41310;DHT22;27057;51.438;-0.010;2022-11-15T05:11:30;11.70;99.90
41310;DHT22;27057;51.438;-0.010;2022-11-15T05:14:16;11.70;99.90
41310;DHT22;27057;51.438;-0.010;2022-11-15T05:17:02;11.80;99.90
41310;DHT22;27057;51.438;-0.010;2022-11-15T05:19:48;12.10;99.90
41310;DHT22;27057;51.438;-0.010;2022-11-15T05:22:33;11.90;99.90
41310;DHT22;27057;51.438;-0.010;2022-11-15T05:25:19;12.00;99.90
41310;DHT22;27057;51.438;-0.010;2022-11-15T05:28:05;12.20;99.90
41310;DHT22;27057;51.438;-0.010;2022-11-15T05:30:51;12.20;99.90
41310;DHT22;27057;51.438;-0.010;2022-11-15T05:33:39;12.20;99.90
41310;DHT22;27057;51.438;-0.010;2022-11-15T05:36:33;12.20;99.90
41310;DHT22;27057;51.438;-0.010;2022-11-15T05:39:20;12.20;99.90
41310;DHT22;27057;51.438;-0.010;2022-11-15T05:42:09;12.20;99.90
41310;DHT22;27057;51.438;-0.010;2022-11-15T05:44:56;12.30;99.90
41310;DHT22;27057;51.438;-0.010;2022-11-15T05:47:43;12.30;99.90
41310;DHT22;27057;51.438;-0.010;2022-11-15T05:50:30;12.30;99.90
41310;DHT22;27057;51.438;-0.010;2022-11-15T05:53:19;12.30;99.90
41310;DHT22;27057;51.438;-0.010;2022-11-15T05:56:06;12.30;99.90
41310;DHT22;27057;51.438;-0.010;2022-11-15T05:58:55;12.40;99.90
41310;DHT22;27057;51.438;-0.010;2022-11-15T06:01:45;12.30;99.90
41310;DHT22;27057;51.438;-0.010;2022-11-15T06:04:30;12.30;99.90
41310;DHT22;27057;51.438;-0.010;2022-11-15T06:07:16;12.40;99.90
41310;DHT22;27057;51.438;-0.010;2022-11-15T06:10:03;12.40;99.90
41310;DHT22;27057;51.438;-0.010;2022-11-15T06:13:00;12.40;99.90
41310;DHT22;27057;51.438;-0.010;2022-11-15T06:15:46;12.40;99.90
41310;DHT22;27057;51.438;-0.010;2022-11-15T06:18:33;12.40;99.90
41310;DHT22;27057;51.438;-0.010;2022-11-15T06:21:20;12.40;99.90
41310;DHT22;27057;51.438;-0.010;2022-11-15T06:24:06;12.40;99.90
41310;DHT22;27057;51.438;-0.010;2022-11-15T06:26:52;12.50;99.90
41310;DHT22;27057;51.438;-0.010;2022-11-15T06:29:38;12.50;99.90
41310;DHT22;27057;51.438;-0.010;2022-11-15T06:32:24;12.90;99.90
41310;DHT22;27057;51.438;-0.010;2022-11-15T06:35:10;12.50;99.90
41310;DHT22;27057;51.438;-0.010;2022-11-15T06:38:02;12.50;99.90
41310;DHT22;27057;51.438;-0.010;2022-11-15T06:40:48;13.10;99.90
41310;DHT22;27057;51.438;-0.010;2022-11-15T06:43:35;12.50;99.90
41310;DHT22;27057;51.438;-0.010;2022-11-15T06:46:21;12.50;99.90
41310;DHT22;27057;51.438;-0.010;2022-11-15T06:49:07;12.50;99.90
41310;DHT22;27057;51.438;-0.010;2022-11-15T06:51:54;12.50;99.90
41310;DHT22;27057;51.438;-0.010;2022-11-15T06:54:40;12.50;99.90
41310;DHT22;27057;51.438;-0.010;2022-11-15T06:57:26;12.40;99.90
41310;DHT22;27057;51.438;-0.010;2022-11-15T07:00:12;12.30;99.90
41310;DHT22;27057;51.438;-0.010;2022-11-15T07:03:02;12.40;99.90
41310;DHT22;27057;51.438;-0.010;2022-11-15T07:05:56;12.30;99.90
41310;DHT22;27057;51.438;-0.010;2022-11-15T07:08:49;12.20;99.90
41310;DHT22;27057;51.438;-0.010;2022-11-15T07:11:35;12.20;99.90
41310;DHT22;27057;51.438;-0.010;2022-11-15T07:14:21;12.20;99.90
41310;DHT22;27057;51.438;-0.010;2022-11-15T07:17:08;12.20;99.90
41310;DHT22;27057;51.438;-0.010;2022-11-15T07:19:54;12.20;99.90
41310;DHT22;27057;51.438;-0.010;2022-11-15T07:22:41;12.10;99.90
41310;DHT22;27057;51.438;-0.010;2022-11-15T07:25:27;12.20;99.90
41310;DHT22;27057;51.438;-0.010;2022-11-15T07:28:13;12.20;99.90
41310;DHT22;27057;51.438;-0.010;2022-11-15T07:31:03;12.10;99.90
41310;DHT22;27057;51.438;-0.010;2022-11-15T07:33:49;12.20;99.90
41310;DHT22;27057;51.438;-0.010;2022-11-15T07:36:35;12.10;99.90
41310;DHT22;27057;51.438;-0.010;2022-11-15T07:39:21;12.10;99.90
41310;DHT22;27057;51.438;-0.010;2022-11-15T07:42:07;12.10;99.90
41310;DHT22;27057;51.438;-0.010;2022-11-15T07:45:11;12.10;99.90
41310;DHT22;27057;51.438;-0.010;2022-11-15T07:47:58;11.90;99.90
41310;DHT22;27057;51.438;-0.010;2022-11-15T07:50:44;11.90;99.90
41310;DHT22;27057;51.438;-0.010;2022-11-15T07:53:30;11.90;99.90
41310;DHT22;27057;51.438;-0.010;2022-11-15T07:56:16;11.90;99.90
41310;DHT22;27057;51.438;-0.010;2022-11-15T07:59:02;11.80;99.90
41310;DHT22;27057;51.438;-0.010;2022-11-15T08:01:48;11.90;99.90
41310;DHT22;27057;51.438;-0.010;2022-11-15T08:07:21;11.90;99.90
41310;DHT22;27057;51.438;-0.010;2022-11-15T08:10:07;11.80;99.90
41310;DHT22;27057;51.438;-0.010;2022-11-15T08:13:00;11.80;99.90
41310;DHT22;27057;51.438;-0.010;2022-11-15T08:15:47;11.80;99.90
41310;DHT22;27057;51.438;-0.010;2022-11-15T08:18:39;11.80;99.90
41310;DHT22;27057;51.438;-0.010;2022-11-15T08:21:25;11.80;99.90
41310;DHT22;27057;51.438;-0.010;2022-11-15T08:24:11;11.80;99.90
41310;DHT22;27057;51.438;-0.010;2022-11-15T08:26:57;11.90;99.90
41310;DHT22;27057;51.438;-0.010;2022-11-15T08:29:44;11.90;99.90
41310;DHT22;27057;51.438;-0.010;2022-11-15T08:32:31;11.90;99.90
41310;DHT22;27057;51.438;-0.010;2022-11-15T08:35:17;11.90;99.90
41310;DHT22;27057;51.438;-0.010;2022-11-15T08:38:03;11.90;99.90
41310;DHT22;27057;51.438;-0.010;2022-11-15T08:40:52;11.90;99.90
41310;DHT22;27057;51.438;-0.010;2022-11-15T08:43:38;11.90;99.90
41310;DHT22;27057;51.438;-0.010;2022-11-15T08:46:25;11.90;99.90
41310;DHT22;27057;51.438;-0.010;2022-11-15T08:49:10;11.80;99.90
41310;DHT22;27057;51.438;-0.010;2022-11-15T08:51:57;11.90;99.90
41310;DHT22;27057;51.438;-0.010;2022-11-15T08:54:43;12.00;99.90
41310;DHT22;27057;51.438;-0.010;2022-11-15T08:57:29;12.00;99.90
41310;DHT22;27057;51.438;-0.010;2022-11-15T09:00:16;12.00;99.90
41310;DHT22;27057;51.438;-0.010;2022-11-15T09:03:06;12.10;99.90
41310;DHT22;27057;51.438;-0.010;2022-11-15T09:05:57;12.10;99.90
41310;DHT22;27057;51.438;-0.010;2022-11-15T09:08:43;12.10;99.90
41310;DHT22;27057;51.438;-0.010;2022-11-15T09:11:33;12.30;99.90
41310;DHT22;27057;51.438;-0.010;2022-11-15T09:14:19;12.40;99.90
41310;DHT22;27057;51.438;-0.010;2022-11-15T09:17:07;12.10;99.90
41310;DHT22;27057;51.438;-0.010;2022-11-15T09:19:54;12.10;99.90
41310;DHT22;27057;51.438;-0.010;2022-11-15T09:22:40;12.30;99.90
41310;DHT22;27057;51.438;-0.010;2022-11-15T09:25:26;12.20;99.90
41310;DHT22;27057;51.438;-0.010;2022-11-15T09:28:12;12.20;99.90
41310;DHT22;27057;51.438;-0.010;2022-11-15T09:30:59;12.20;99.90
41310;DHT22;27057;51.438;-0.010;2022-11-15T09:33:45;12.20;99.90
41310;DHT22;27057;51.438;-0.010;2022-11-15T09:36:31;12.30;99.90
41310;DHT22;27057;51.438;-0.010;2022-11-15T09:45:34;12.30;99.90
41310;DHT22;27057;51.438;-0.010;2022-11-15T09:51:36;12.30;99.90
41310;DHT22;27057;51.438;-0.010;2022-11-15T09:54:17;12.30;99.90
41310;DHT22;27057;51.438;-0.010;2022-11-15T09:57:12;12.30;99.90
41310;DHT22;27057;51.438;-0.010;2022-11-15T10:03:03;12.30;99.90
41310;DHT22;27057;51.438;-0.010;2022-11-15T10:05:38;12.30;99.90
41310;DHT22;27057;51.438;-0.010;2022-11-15T10:10:47;12.40;99.90
41310;DHT22;27057;51.438;-0.010;2022-11-15T10:13:40;12.40;99.90
41310;DHT22;27057;51.438;-0.010;2022-11-15T10:24:25;12.50;99.90
41310;DHT22;27057;51.438;-0.010;2022-11-15T10:26:56;12.50;99.90
41310;DHT22;27057;51.438;-0.010;2022-11-15T10:29:24;12.60;99.90
41310;DHT22;27057;51.438;-0.010;2022-11-15T10:31:53;12.60;99.90
41310;DHT22;27057;51.438;-0.010;2022-11-15T10:34:22;12.60;99.90
41310;DHT22;27057;51.438;-0.010;2022-11-15T10:37:00;12.60;99.90
41310;DHT22;27057;51.438;-0.010;2022-11-15T10:39:29;12.70;99.90
41310;DHT22;27057;51.438;-0.010;2022-11-15T10:41:57;12.60;99.90
41310;DHT22;27057;51.438;-0.010;2022-11-15T10:44:30;12.70;99.90
41310;DHT22;27057;51.438;-0.010;2022-11-15T10:49:29;13.10;99.90
41310;DHT22;27057;51.438;-0.010;2022-11-15T10:52:00;12.60;99.90
41310;DHT22;27057;51.438;-0.010;2022-11-15T10:54:37;12.60;99.90
41310;DHT22;27057;51.438;-0.010;2022-11-15T10:57:11;12.70;99.90
41310;DHT22;27057;51.438;-0.010;2022-11-15T11:00:03;12.60;99.90
41310;DHT22;27057;51.438;-0.010;2022-11-15T11:02:39;12.60;99.90
41310;DHT22;27057;51.438;-0.010;2022-11-15T11:08:01;12.70;99.90
41310;DHT22;27057;51.438;-0.010;2022-11-15T11:10:29;12.60;99.90
41310;DHT22;27057;51.438;-0.010;2022-11-15T11:13:36;12.60;99.90
41310;DHT22;27057;51.438;-0.010;2022-11-15T11:21:51;12.60;99.90
41310;DHT22;27057;51.438;-0.010;2022-11-15T11:24:23;12.70;99.90
41310;DHT22;27057;51.438;-0.010;2022-11-15T11:27:06;12.60;99.90
41310;DHT22;27057;51.438;-0.010;2022-11-15T11:40:37;12.60;99.90
41310;DHT22;27057;51.438;-0.010;2022-11-15T11:46:30;12.60;99.90
41310;DHT22;27057;51.438;-0.010;2022-11-15T11:49:12;12.60;99.90
41310;DHT22;27057;51.438;-0.010;2022-11-15T11:55:00;12.60;99.90
41310;DHT22;27057;51.438;-0.010;2022-11-15T12:00:17;12.60;99.90
41310;DHT22;27057;51.438;-0.010;2022-11-15T12:08:45;12.70;99.90
41310;DHT22;27057;51.438;-0.010;2022-11-15T12:11:49;12.70;99.90
41310;DHT22;27057;51.438;-0.010;2022-11-15T12:17:00;12.70;99.90
41310;DHT22;27057;51.438;-0.010;2022-11-15T12:19:29;12.80;99.90
41310;DHT22;27057;51.438;-0.010;2022-11-15T12:22:10;12.80;99.90
41310;DHT22;27057;51.438;-0.010;2022-11-15T12:27:38;12.90;99.90
41310;DHT22;27057;51.438;-0.010;2022-11-15T12:30:19;12.80;99.90
41310;DHT22;27057;51.438;-0.010;2022-11-15T12:32:56;12.80;99.90
41310;DHT22;27057;51.438;-0.010;2022-11-15T12:35:34;12.80;99.90
41310;DHT22;27057;51.438;-0.010;2022-11-15T12:38:02;12.80;99.90
41310;DHT22;27057;51.438;-0.010;2022-11-15T12:41:12;13.10;99.90
41310;DHT22;27057;51.438;-0.010;2022-11-15T12:43:41;12.90;99.90
41310;DHT22;27057;51.438;-0.010;2022-11-15T12:48:58;13.00;99.90
41310;DHT22;27057;51.438;-0.010;2022-11-15T13:02:42;13.10;99.90
41310;DHT22;27057;51.438;-0.010;2022-11-15T13:17:50;13.30;99.90
41310;DHT22;27057;51.438;-0.010;2022-11-15T13:23:09;13.30;99.90
41310;DHT22;27057;51.438;-0.010;2022-11-15T13:26:06;13.60;99.90
41310;DHT22;27057;51.438;-0.010;2022-11-15T13:31:37;14.10;99.90
41310;DHT22;27057;51.438;-0.010;2022-11-15T13:37:27;15.10;99.90
41310;DHT22;27057;51.438;-0.010;2022-11-15T13:40:26;15.60;99.90
41310;DHT22;27057;51.438;-0.010;2022-11-15T13:43:23;16.00;99.90
41310;DHT22;27057;51.438;-0.010;2022-11-15T13:46:15;16.20;99.90
41310;DHT22;27057;51.438;-0.010;2022-11-15T13:48:44;16.50;99.90
41310;DHT22;27057;51.438;-0.010;2022-11-15T13:56:46;16.30;99.90
41310;DHT22;27057;51.438;-0.010;2022-11-15T13:59:26;16.20;99.90
41310;DHT22;27057;51.438;-0.010;2022-11-15T14:01:55;16.50;99.90
41310;DHT22;27057;51.438;-0.010;2022-11-15T14:04:25;16.80;99.90
41310;DHT22;27057;51.438;-0.010;2022-11-15T14:06:56;17.20;99.90
41310;DHT22;27057;51.438;-0.010;2022-11-15T14:09:34;17.30;99.90
41310;DHT22;27057;51.438;-0.010;2022-11-15T14:12:20;17.60;99.90
41310;DHT22;27057;51.438;-0.010;2022-11-15T14:14:48;17.60;99.90
41310;DHT22;27057;51.438;-0.010;2022-11-15T14:17:35;17.90;99.90
41310;DHT22;27057;51.438;-0.010;2022-11-15T14:22:57;18.50;99.90
41310;DHT22;27057;51.438;-0.010;2022-11-15T14:25:27;18.80;99.90
41310;DHT22;27057;51.438;-0.010;2022-11-15T14:28:10;18.70;99.90
41310;DHT22;27057;51.438;-0.010;2022-11-15T14:30:41;18.90;99.90
41310;DHT22;27057;51.438;-0.010;2022-11-15T14:33:24;18.90;99.90
41310;DHT22;27057;51.438;-0.010;2022-11-15T14:35:52;18.80;99.90
41310;DHT22;27057;51.438;-0.010;2022-11-15T14:38:20;18.80;99.90
41310;DHT22;27057;51.438;-0.010;2022-11-15T14:40:47;18.90;99.90
41310;DHT22;27057;51.438;-0.010;2022-11-15T14:43:14;18.90;99.90
41310;DHT22;27057;51.438;-0.010;2022-11-15T14:45:42;18.70;99.90
41310;DHT22;27057;51.438;-0.010;2022-11-15T14:48:09;18.70;99.90
41310;DHT22;27057;51.438;-0.010;2022-11-15T14:50:37;18.60;99.90
41310;DHT22;27057;51.438;-0.010;2022-11-15T14:53:05;18.60;99.90
41310;DHT22;27057;51.438;-0.010;2022-11-15T14:55:34;18.50;99.90
41310;DHT22;27057;51.438;-0.010;2022-11-15T14:58:04;18.30;99.90
41310;DHT22;27057;51.438;-0.010;2022-11-15T15:00:32;17.80;99.90
41310;DHT22;27057;51.438;-0.010;2022-11-15T15:03:03;17.20;99.90
41310;DHT22;27057;51.438;-0.010;2022-11-15T15:05:36;16.80;99.90
41310;DHT22;27057;51.438;-0.010;2022-11-15T15:08:05;16.20;99.90
41310;DHT22;27057;51.438;-0.010;2022-11-15T15:10:41;15.90;99.90
41310;DHT22;27057;51.438;-0.010;2022-11-15T15:13:20;15.60;99.90
41310;DHT22;27057;51.438;-0.010;2022-11-15T15:15:49;15.20;99.90
41310;DHT22;27057;51.438;-0.010;2022-11-15T15:18:17;15.00;99.90
41310;DHT22;27057;51.438;-0.010;2022-11-15T15:20:53;14.80;99.90
41310;DHT22;27057;51.438;-0.010;2022-11-15T15:23:21;14.70;99.90
41310;DHT22;27057;51.438;-0.010;2022-11-15T15:25:49;14.60;99.90
41310;DHT22;27057;51.438;-0.010;2022-11-15T15:28:17;14.50;99.90
41310;DHT22;27057;51.438;-0.010;2022-11-15T15:30:44;14.40;99.90
41310;DHT22;27057;51.438;-0.010;2022-11-15T15:33:11;14.30;99.90
41310;DHT22;27057;51.438;-0.010;2022-11-15T15:35:39;14.20;99.90
41310;DHT22;27057;51.438;-0.010;2022-11-15T15:38:08;14.10;99.90
41310;DHT22;27057;51.438;-0.010;2022-11-15T15:40:36;14.00;99.90
41310;DHT22;27057;51.438;-0.010;2022-11-15T15:43:03;13.90;99.90
41310;DHT22;27057;51.438;-0.010;2022-11-15T15:45:30;13.90;99.90
41310;DHT22;27057;51.438;-0.010;2022-11-15T15:50:29;13.90;99.90
41310;DHT22;27057;51.438;-0.010;2022-11-15T15:52:59;13.90;99.90
41310;DHT22;27057;51.438;-0.010;2022-11-15T15:55:27;13.80;99.90
41310;DHT22;27057;51.438;-0.010;2022-11-15T15:57:54;13.80;99.90
41310;DHT22;27057;51.438;-0.010;2022-11-15T16:00:23;13.80;99.90
41310;DHT22;27057;51.438;-0.010;2022-11-15T16:02:52;13.80;99.90
41310;DHT22;27057;51.438;-0.010;2022-11-15T16:05:21;13.70;99.90
41310;DHT22;27057;51.438;-0.010;2022-11-15T16:07:48;13.70;99.90
41310;DHT22;27057;51.438;-0.010;2022-11-15T16:10:31;13.60;99.90
41310;DHT22;27057;51.438;-0.010;2022-11-15T16:12:58;13.50;99.90
41310;DHT22;27057;51.438;-0.010;2022-11-15T16:15:27;13.90;99.90
41310;DHT22;27057;51.438;-0.010;2022-11-15T16:17:59;13.40;99.90
41310;DHT22;27057;51.438;-0.010;2022-11-15T16:20:40;13.40;99.90
41310;DHT22;27057;51.438;-0.010;2022-11-15T16:23:11;13.40;99.90
41310;DHT22;27057;51.438;-0.010;2022-11-15T16:25:41;13.40;99.90
41310;DHT22;27057;51.438;-0.010;2022-11-15T16:28:21;13.30;99.90
41310;DHT22;27057;51.438;-0.010;2022-11-15T16:30:49;13.30;99.90
41310;DHT22;27057;51.438;-0.010;2022-11-15T16:33:25;13.20;99.90
41310;DHT22;27057;51.438;-0.010;2022-11-15T16:35:53;13.20;99.90
41310;DHT22;27057;51.438;-0.010;2022-11-15T16:38:20;13.20;99.90
41310;DHT22;27057;51.438;-0.010;2022-11-15T16:43:15;13.10;99.90
41310;DHT22;27057;51.438;-0.010;2022-11-15T16:45:43;13.10;99.90
41310;DHT22;27057;51.438;-0.010;2022-11-15T16:48:23;13.00;99.90
41310;DHT22;27057;51.438;-0.010;2022-11-15T16:50:55;13.00;99.90
41310;DHT22;27057;51.438;-0.010;2022-11-15T16:53:24;13.10;99.90
41310;DHT22;27057;51.438;-0.010;2022-11-15T16:55:53;13.10;99.90
41310;DHT22;27057;51.438;-0.010;2022-11-15T16:58:20;12.90;99.90
41310;DHT22;27057;51.438;-0.010;2022-11-15T17:00:52;13.00;99.90
41310;DHT22;27057;51.438;-0.010;2022-11-15T17:03:21;13.70;99.90
41310;DHT22;27057;51.438;-0.010;2022-11-15T17:05:49;12.80;99.90
41310;DHT22;27057;51.438;-0.010;2022-11-15T17:08:17;12.70;99.90
41310;DHT22;27057;51.438;-0.010;2022-11-15T17:10:47;12.70;99.90
41310;DHT22;27057;51.438;-0.010;2022-11-15T17:13:15;12.70;99.90
41310;DHT22;27057;51.438;-0.010;2022-11-15T17:15:42;12.70;99.90
41310;DHT22;27057;51.438;-0.010;2022-11-15T17:18:12;12.70;99.90
41310;DHT22;27057;51.438;-0.010;2022-11-15T17:20:41;12.60;99.90
41310;DHT22;27057;51.438;-0.010;2022-11-15T17:23:13;12.90;99.90
41310;DHT22;27057;51.438;-0.010;2022-11-15T17:25:41;12.60;99.90
41310;DHT22;27057;51.438;-0.010;2022-11-15T17:28:09;12.80;99.90
41310;DHT22;27057;51.438;-0.010;2022-11-15T17:30:40;12.80;99.90
41310;DHT22;27057;51.438;-0.010;2022-11-15T17:33:07;12.70;99.90
41310;DHT22;27057;51.438;-0.010;2022-11-15T17:35:35;12.70;99.90
41310;DHT22;27057;51.438;-0.010;2022-11-15T17:38:02;12.80;99.90
41310;DHT22;27057;51.438;-0.010;2022-11-15T17:40:29;12.80;99.90
41310;DHT22;27057;51.438;-0.010;2022-11-15T17:42:57;12.70;99.90
41310;DHT22;27057;51.438;-0.010;2022-11-15T17:45:24;12.60;99.90
41310;DHT22;27057;51.438;-0.010;2022-11-15T17:47:51;12.50;99.90
41310;DHT22;27057;51.438;-0.010;2022-11-15T17:50:19;12.40;99.90
41310;DHT22;27057;51.438;-0.010;2022-11-15T17:52:46;12.50;99.90
41310;DHT22;27057;51.438;-0.010;2022-11-15T17:55:14;12.50;99.90
41310;DHT22;27057;51.438;-0.010;2022-11-15T17:57:43;12.40;99.90
41310;DHT22;27057;51.438;-0.010;2022-11-15T18:00:10;12.40;99.90
41310;DHT22;27057;51.438;-0.010;2022-11-15T18:02:38;12.30;99.90
41310;DHT22;27057;51.438;-0.010;2022-11-15T18:05:05;12.40;99.90
41310;DHT22;27057;51.438;-0.010;2022-11-15T18:07:33;12.30;99.90
41310;DHT22;27057;51.438;-0.010;2022-11-15T18:10:00;12.10;99.90
41310;DHT22;27057;51.438;-0.010;2022-11-15T18:12:27;12.20;99.90
41310;DHT22;27057;51.438;-0.010;2022-11-15T18:14:55;12.20;99.90
41310;DHT22;27057;51.438;-0.010;2022-11-15T18:17:22;12.10;99.90
41310;DHT22;27057;51.438;-0.010;2022-11-15T18:19:50;12.20;99.90
41310;DHT22;27057;51.438;-0.010;2022-11-15T18:22:17;12.10;99.90
41310;DHT22;27057;51.438;-0.010;2022-11-15T18:24:46;12.10;99.90
41310;DHT22;27057;51.438;-0.010;2022-11-15T18:27:14;12.40;99.90
41310;DHT22;27057;51.438;-0.010;2022-11-15T18:29:41;12.00;99.90
41310;DHT22;27057;51.438;-0.010;2022-11-15T18:32:10;12.20;99.90
41310;DHT22;27057;51.438;-0.010;2022-11-15T18:34:41;12.00;99.90
41310;DHT22;27057;51.438;-0.010;2022-11-15T18:37:08;12.00;99.90
41310;DHT22;27057;51.438;-0.010;2022-11-15T18:39:35;11.90;99.90
41310;DHT22;27057;51.438;-0.010;2022-11-15T18:42:03;11.90;99.90
41310;DHT22;27057;51.438;-0.010;2022-11-15T18:44:31;11.80;99.90
41310;DHT22;27057;51.438;-0.010;2022-11-15T18:46:58;11.80;99.90
41310;DHT22;27057;51.438;-0.010;2022-11-15T18:49:25;11.70;99.90
41310;DHT22;27057;51.438;-0.010;2022-11-15T18:51:53;11.60;99.90
41310;DHT22;27057;51.438;-0.010;2022-11-15T18:54:21;11.60;99.90
41310;DHT22;27057;51.438;-0.010;2022-11-15T18:56:55;11.70;99.90
41310;DHT22;27057;51.438;-0.010;2022-11-15T18:59:22;11.90;99.90
41310;DHT22;27057;51.438;-0.010;2022-11-15T19:01:50;11.50;99.90
41310;DHT22;27057;51.438;-0.010;2022-11-15T19:04:19;11.50;99.90
41310;DHT22;27057;51.438;-0.010;2022-11-15T19:06:48;11.40;99.90
41310;DHT22;27057;51.438;-0.010;2022-11-15T19:09:17;11.50;99.90